Time;durP1;ratioP1;P1;durP2;ratioP2;P2;SDS_P1;SDS_P2;PMS_P1;PMS_P2;Temp;Humidity;BMP_temperature;BMP_pressure;BME280_temperature;BME280_humidity;BME280_pressure;Samples;Min_cycle;Max_cycle;Signal;HPM_P1;HPM_P2
2022/04/29 00:00:03;;;;;;;15.30;9.52;;;;;;;;;;6259827;28;20349;-75
2022/04/29 00:03:07;;;;;;;15.15;9.52;;;;;;;;;;6256327;28;20058;-74
2022/04/29 00:06:08;;;;;;;24.17;10.35;;;;;;;;;;6255429;28;20053;-74
2022/04/29 00:09:11;;;;;;;13.38;9.73;;;;;;;;;;6257105;28;20064;-76
2022/04/29 00:12:13;;;;;;;13.67;9.93;;;;;;;;;;6259129;28;20092;-76
2022/04/29 00:15:16;;;;;;;15.13;10.15;;;;;;;;;;6259536;28;20103;-78
2022/04/29 00:18:18;;;;;;;16.35;9.77;;;;;;;;;;6257095;28;20045;-79
2022/04/29 00:21:20;;;;;;;15.40;9.40;;;;;;;;;;6255060;28;20295;-78
2022/04/29 00:24:23;;;;;;;13.88;9.15;;;;;;;;;;6256803;28;20156;-78
2022/04/29 00:27:25;;;;;;;13.80;9.50;;;;;;;;;;6257034;28;20340;-77
2022/04/29 00:30:26;;;;;;;15.07;9.52;;;;;;;;;;6252032;28;20459;-77
2022/04/29 00:33:28;;;;;;;13.48;8.88;;;;;;;;;;6258371;28;20041;-77
2022/04/29 00:36:30;;;;;;;14.85;9.73;;;;;;;;;;6255089;28;20061;-77
2022/04/29 00:39:35;;;;;;;13.82;9.00;;;;;;;;;;6259718;28;20049;-77
2022/04/29 00:42:37;;;;;;;12.07;8.38;;;;;;;;;;6256407;28;20340;-77
2022/04/29 00:45:39;;;;;;;13.07;8.60;;;;;;;;;;6256014;28;20057;-76
2022/04/29 00:48:40;;;;;;;14.55;8.52;;;;;;;;;;6255677;28;20053;-77
2022/04/29 00:51:43;;;;;;;13.55;9.02;;;;;;;;;;6256145;28;20052;-79
2022/04/29 00:54:50;;;;;;;13.90;8.20;;;;;;;;;;6251819;28;20046;-78
2022/04/29 00:58:01;;;;;;;13.05;8.38;;;;;;;;;;6254646;28;20065;-80
2022/04/29 01:01:04;;;;;;;11.82;7.93;;;;;;;;;;6254617;28;20117;-79
2022/04/29 01:04:07;;;;;;;11.98;7.95;;;;;;;;;;6256638;28;20327;-80
2022/04/29 01:07:09;;;;;;;12.25;8.20;;;;;;;;;;6248610;28;20348;-77
2022/04/29 01:10:13;;;;;;;14.48;8.77;;;;;;;;;;6256482;28;20068;-78
2022/04/29 01:13:15;;;;;;;12.18;7.88;;;;;;;;;;6252603;28;20401;-78
2022/04/29 01:16:17;;;;;;;12.80;8.60;;;;;;;;;;6251818;28;20095;-78
2022/04/29 01:19:19;;;;;;;12.05;7.68;;;;;;;;;;6253435;28;20045;-80
2022/04/29 01:22:22;;;;;;;15.25;7.93;;;;;;;;;;6253726;28;20095;-82
2022/04/29 01:25:24;;;;;;;12.87;8.10;;;;;;;;;;6256129;28;20080;-76
2022/04/29 01:28:27;;;;;;;11.20;7.55;;;;;;;;;;6252220;28;20857;-77
2022/04/29 01:31:29;;;;;;;11.18;7.88;;;;;;;;;;6255828;28;20087;-76
2022/04/29 01:34:31;;;;;;;12.15;7.22;;;;;;;;;;6242179;28;20104;-76
2022/04/29 01:37:34;;;;;;;13.85;7.90;;;;;;;;;;6255391;28;20050;-76
2022/04/29 01:40:36;;;;;;;11.02;7.47;;;;;;;;;;6249655;28;20336;-76
2022/04/29 01:43:39;;;;;;;10.93;7.22;;;;;;;;;;6250460;28;20053;-77
2022/04/29 01:46:43;;;;;;;13.15;8.00;;;;;;;;;;6256409;28;20055;-76
2022/04/29 01:49:45;;;;;;;12.00;7.90;;;;;;;;;;6256228;28;20083;-76
2022/04/29 01:52:48;;;;;;;12.90;7.55;;;;;;;;;;6254456;28;20418;-77
2022/04/29 01:55:49;;;;;;;12.35;7.88;;;;;;;;;;6256492;28;20569;-76
2022/04/29 01:58:51;;;;;;;15.25;7.97;;;;;;;;;;6255308;28;20053;-76
2022/04/29 02:01:52;;;;;;;11.15;7.55;;;;;;;;;;6252755;28;20041;-76
2022/04/29 02:04:54;;;;;;;10.80;7.20;;;;;;;;;;6254307;28;20053;-77
2022/04/29 02:08:00;;;;;;;11.48;7.47;;;;;;;;;;6254792;28;20045;-77
2022/04/29 02:11:02;;;;;;;11.60;7.82;;;;;;;;;;6255657;28;20139;-76
2022/04/29 02:14:03;;;;;;;13.93;7.95;;;;;;;;;;6253613;28;20103;-77
2022/04/29 02:17:06;;;;;;;12.55;7.68;;;;;;;;;;6242391;28;20260;-76
2022/04/29 02:20:09;;;;;;;9.60;7.03;;;;;;;;;;6250397;28;20057;-76
2022/04/29 02:23:13;;;;;;;12.40;7.93;;;;;;;;;;6256649;28;20443;-78
2022/04/29 02:26:14;;;;;;;;;;;;;;;;;;6254361;28;20109;-76
2022/04/29 02:29:16;;;;;;;11.65;7.40;;;;;;;;;;6249948;28;19925;-76
2022/04/29 02:32:18;;;;;;;13.20;7.50;;;;;;;;;;6256914;28;20272;-76
2022/04/29 02:35:19;;;;;;;11.45;7.50;;;;;;;;;;6252555;28;20112;-76
2022/04/29 02:38:23;;;;;;;10.55;7.35;;;;;;;;;;6249917;28;20108;-76
2022/04/29 02:41:24;;;;;;;12.45;7.13;;;;;;;;;;6252411;28;20336;-76
2022/04/29 02:44:26;;;;;;;10.90;7.15;;;;;;;;;;6252271;28;20076;-76
2022/04/29 02:47:28;;;;;;;13.48;8.38;;;;;;;;;;6248077;28;20045;-76
2022/04/29 02:50:29;;;;;;;11.80;8.05;;;;;;;;;;6252826;28;20084;-76
2022/04/29 02:53:32;;;;;;;10.82;7.28;;;;;;;;;;6250213;28;20303;-76
2022/04/29 02:56:34;;;;;;;12.90;7.60;;;;;;;;;;6251957;28;20049;-76
2022/04/29 02:59:36;;;;;;;11.00;7.75;;;;;;;;;;6253265;28;20057;-76
2022/04/29 03:02:37;;;;;;;11.15;7.55;;;;;;;;;;6253613;28;20095;-76
2022/04/29 03:05:40;;;;;;;10.82;7.13;;;;;;;;;;6254902;28;20240;-76
2022/04/29 03:08:43;;;;;;;10.68;7.57;;;;;;;;;;6252898;28;20064;-76
2022/04/29 03:11:44;;;;;;;12.97;7.37;;;;;;;;;;6252623;28;20089;-76
2022/04/29 03:14:47;;;;;;;12.77;8.27;;;;;;;;;;6255143;28;20064;-76
2022/04/29 03:21:09;;;;;;;9.18;6.78;;;;;;;;;;6251609;28;20049;-76
2022/04/29 03:24:12;;;;;;;10.32;6.43;;;;;;;;;;6255194;28;20056;-76
2022/04/29 03:27:14;;;;;;;12.83;7.07;;;;;;;;;;6251532;28;20097;-76
2022/04/29 03:30:15;;;;;;;11.38;7.80;;;;;;;;;;6254996;28;20347;-76
2022/04/29 03:33:17;;;;;;;10.77;7.43;;;;;;;;;;6253093;28;20066;-76
2022/04/29 03:36:19;;;;;;;11.77;7.07;;;;;;;;;;6254808;28;20057;-76
2022/04/29 03:39:22;;;;;;;9.70;6.65;;;;;;;;;;6253226;28;20091;-78
2022/04/29 03:42:23;;;;;;;10.00;7.20;;;;;;;;;;6254483;28;20076;-76
2022/04/29 03:45:26;;;;;;;13.68;7.22;;;;;;;;;;6251206;28;20221;-75
2022/04/29 03:49:35;;;;;;;12.40;7.47;;;;;;;;;;6253533;28;20413;-75
2022/04/29 03:51:50;;;;;;;14.18;7.22;;;;;;;;;;6251522;28;20084;-76
2022/04/29 03:54:53;;;;;;;11.27;7.00;;;;;;;;;;6253865;28;20173;-76
2022/04/29 03:57:55;;;;;;;9.97;7.33;;;;;;;;;;6252553;28;20252;-76
2022/04/29 04:00:56;;;;;;;10.48;6.82;;;;;;;;;;6252375;28;20293;-76
2022/04/29 04:03:58;;;;;;;12.35;7.78;;;;;;;;;;6251628;28;20053;-75
2022/04/29 04:07:02;;;;;;;12.88;7.97;;;;;;;;;;6253535;28;20056;-75
2022/04/29 04:10:05;;;;;;;;;;;;;;;;;;6248090;28;20264;-80
2022/04/29 04:13:07;;;;;;;11.15;6.95;;;;;;;;;;6254771;28;20077;-77
2022/04/29 04:16:09;;;;;;;14.02;7.90;;;;;;;;;;6249423;28;20112;-75
2022/04/29 04:19:10;;;;;;;11.02;7.88;;;;;;;;;;6260035;28;20358;-76
2022/04/29 04:22:12;;;;;;;13.18;7.32;;;;;;;;;;6254708;28;20049;-76
2022/04/29 04:25:15;;;;;;;14.23;7.60;;;;;;;;;;6257488;28;20340;-75
2022/04/29 04:28:17;;;;;;;15.50;8.00;;;;;;;;;;6256054;28;20279;-75
2022/04/29 04:31:21;;;;;;;16.05;8.00;;;;;;;;;;6256320;28;20045;-76
2022/04/29 04:37:41;;;;;;;13.93;7.82;;;;;;;;;;6257035;28;19952;-75
2022/04/29 04:40:44;;;;;;;12.73;7.50;;;;;;;;;;6256452;28;20264;-75
2022/04/29 04:43:46;;;;;;;13.87;7.50;;;;;;;;;;6257521;28;20050;-75
2022/04/29 04:46:47;;;;;;;24.48;8.63;;;;;;;;;;6255109;28;20057;-77
2022/04/29 04:49:49;;;;;;;19.23;7.47;;;;;;;;;;6255187;28;20074;-76
2022/04/29 04:52:51;;;;;;;15.65;8.15;;;;;;;;;;6259088;28;20049;-75
2022/04/29 04:55:54;;;;;;;20.45;9.07;;;;;;;;;;6253762;28;20080;-71
2022/04/29 04:58:55;;;;;;;20.27;8.40;;;;;;;;;;6254944;28;20124;-75
2022/04/29 05:01:57;;;;;;;16.08;8.43;;;;;;;;;;6254064;28;20053;-75
2022/04/29 05:04:58;;;;;;;15.55;8.68;;;;;;;;;;6254105;28;20076;-74
2022/04/29 05:08:00;;;;;;;17.30;9.00;;;;;;;;;;6253772;28;20053;-75
2022/04/29 05:11:03;;;;;;;15.88;8.57;;;;;;;;;;6255769;28;20049;-75
2022/04/29 05:14:05;;;;;;;19.30;8.87;;;;;;;;;;6254205;28;20053;-75
2022/04/29 05:17:06;;;;;;;16.38;8.70;;;;;;;;;;6253821;28;20048;-75
2022/04/29 05:20:09;;;;;;;16.38;8.95;;;;;;;;;;6251816;28;20240;-75
2022/04/29 05:23:11;;;;;;;24.43;9.70;;;;;;;;;;6253061;28;20132;-75
2022/04/29 05:26:14;;;;;;;16.63;8.70;;;;;;;;;;6252847;28;20204;-75
2022/04/29 05:29:15;;;;;;;17.07;9.43;;;;;;;;;;6256874;28;20095;-74
2022/04/29 05:32:17;;;;;;;19.10;9.10;;;;;;;;;;6256906;28;20354;-74
2022/04/29 05:35:19;;;;;;;16.42;8.90;;;;;;;;;;6255487;28;20091;-75
2022/04/29 05:38:20;;;;;;;15.90;8.95;;;;;;;;;;6255116;28;20050;-75
2022/04/29 05:44:43;;;;;;;15.90;8.38;;;;;;;;;;6252311;28;20061;-75
2022/04/29 05:47:45;;;;;;;12.73;7.95;;;;;;;;;;6255081;28;20045;-75
2022/04/29 05:50:46;;;;;;;13.32;8.27;;;;;;;;;;6253977;28;20064;-75
2022/04/29 05:53:48;;;;;;;13.85;9.55;;;;;;;;;;6251951;28;20116;-75
2022/04/29 05:56:51;;;;;;;12.85;8.85;;;;;;;;;;6254143;28;20041;-76
2022/04/29 05:59:52;;;;;;;19.63;10.10;;;;;;;;;;6250561;28;20072;-75
2022/04/29 06:02:54;;;;;;;13.85;9.27;;;;;;;;;;6253323;28;20048;-75
2022/04/29 06:05:56;;;;;;;13.77;9.48;;;;;;;;;;6252879;28;20248;-75
2022/04/29 06:08:57;;;;;;;15.07;10.20;;;;;;;;;;6255588;28;20225;-75
2022/04/29 06:12:00;;;;;;;13.35;9.52;;;;;;;;;;6252645;28;20260;-75
2022/04/29 06:15:02;;;;;;;14.27;9.50;;;;;;;;;;6252750;28;20050;-75
2022/04/29 06:18:04;;;;;;;13.90;9.25;;;;;;;;;;6253427;28;20049;-75
2022/04/29 06:21:06;;;;;;;18.00;9.27;;;;;;;;;;6255018;28;20049;-76
2022/04/29 06:24:08;;;;;;;14.70;9.23;;;;;;;;;;6254825;28;20057;-76
2022/04/29 06:27:11;;;;;;;12.77;9.30;;;;;;;;;;6247699;28;20313;-76
2022/04/29 06:30:13;;;;;;;15.75;9.05;;;;;;;;;;6254646;28;20099;-76
2022/04/29 06:33:16;;;;;;;11.57;8.05;;;;;;;;;;6250460;28;20061;-77
2022/04/29 06:36:17;;;;;;;18.20;8.50;;;;;;;;;;6255744;28;20137;-76
2022/04/29 06:39:19;;;;;;;15.02;8.93;;;;;;;;;;6251589;28;20102;-76
2022/04/29 06:42:22;;;;;;;15.52;8.25;;;;;;;;;;6250386;28;20057;-76
2022/04/29 06:45:23;;;;;;;11.30;8.50;;;;;;;;;;6248733;28;20109;-76
2022/04/29 06:48:25;;;;;;;11.95;7.80;;;;;;;;;;6253030;28;20518;-76
2022/04/29 06:51:27;;;;;;;14.00;7.95;;;;;;;;;;6252247;28;20126;-76
2022/04/29 06:54:28;;;;;;;13.00;8.10;;;;;;;;;;6253340;28;20193;-76
2022/04/29 06:57:31;;;;;;;12.13;7.82;;;;;;;;;;6249914;28;20144;-76
2022/04/29 07:00:33;;;;;;;13.75;7.30;;;;;;;;;;6254296;28;20079;-76
2022/04/29 07:03:36;;;;;;;10.10;7.75;;;;;;;;;;6249968;28;20052;-76
2022/04/29 07:06:38;;;;;;;12.30;8.00;;;;;;;;;;6255492;28;20049;-76
2022/04/29 07:09:40;;;;;;;10.50;7.32;;;;;;;;;;6251623;28;20464;-75
2022/04/29 07:12:44;;;;;;;9.75;6.60;;;;;;;;;;6252527;28;20137;-76
2022/04/29 07:15:48;;;;;;;8.70;6.50;;;;;;;;;;6250533;28;20046;-76
2022/04/29 07:18:50;;;;;;;12.75;6.30;;;;;;;;;;6248972;28;20081;-76
2022/04/29 07:21:51;;;;;;;9.23;6.95;;;;;;;;;;6253900;28;20103;-76
2022/04/29 07:24:53;;;;;;;9.38;6.82;;;;;;;;;;6250584;28;20060;-76
2022/04/29 07:27:56;;;;;;;7.55;5.80;;;;;;;;;;6254577;28;20088;-74
2022/04/29 07:30:57;;;;;;;8.68;6.63;;;;;;;;;;6252852;28;20057;-77
2022/04/29 07:33:59;;;;;;;8.88;6.82;;;;;;;;;;6254445;28;20057;-77
2022/04/29 07:43:40;;;;;;;10.70;6.85;;;;;;;;;;6255542;28;20296;-77
2022/04/29 07:46:45;;;;;;;12.68;7.63;;;;;;;;;;6236158;28;20050;-76
2022/04/29 07:49:47;;;;;;;9.52;7.47;;;;;;;;;;6241499;28;20068;-77
2022/04/29 07:52:48;;;;;;;12.85;7.47;;;;;;;;;;6258842;28;20057;-76
2022/04/29 07:55:52;;;;;;;13.30;8.23;;;;;;;;;;6258425;28;20049;-76
2022/04/29 07:58:55;;;;;;;9.88;7.53;;;;;;;;;;6257272;28;20247;-76
2022/04/29 08:01:57;;;;;;;10.48;7.28;;;;;;;;;;6254648;28;20072;-76
2022/04/29 08:04:58;;;;;;;10.88;7.22;;;;;;;;;;6256799;28;20116;-76
2022/04/29 08:08:00;;;;;;;9.32;7.22;;;;;;;;;;6256505;28;20161;-77
2022/04/29 08:11:02;;;;;;;12.98;7.55;;;;;;;;;;6254276;28;20363;-77
2022/04/29 08:14:06;;;;;;;122.38;81.72;;;;;;;;;;6255649;28;20123;-72
2022/04/29 08:17:09;;;;;;;20.40;14.68;;;;;;;;;;6254375;28;20049;-72
2022/04/29 08:20:11;;;;;;;13.30;8.52;;;;;;;;;;6256648;28;20112;-75
2022/04/29 08:23:13;;;;;;;8.10;6.70;;;;;;;;;;6255919;28;20120;-76
2022/04/29 08:26:15;;;;;;;12.55;7.22;;;;;;;;;;6258075;28;20119;-73
2022/04/29 08:29:18;;;;;;;11.10;6.55;;;;;;;;;;6257563;28;20293;-75
2022/04/29 08:32:19;;;;;;;8.90;7.30;;;;;;;;;;6254588;28;20061;-74
2022/04/29 08:35:21;;;;;;;9.27;7.00;;;;;;;;;;6256769;28;20061;-74
2022/04/29 08:38:23;;;;;;;10.40;6.82;;;;;;;;;;6258319;28;20056;-74
2022/04/29 08:41:25;;;;;;;11.68;7.00;;;;;;;;;;6253357;28;20057;-74
2022/04/29 08:44:30;;;;;;;8.27;7.10;;;;;;;;;;6251488;28;20237;-74
2022/04/29 08:47:32;;;;;;;9.38;5.90;;;;;;;;;;6255514;28;20150;-74
2022/04/29 08:50:34;;;;;;;8.23;5.80;;;;;;;;;;6253256;28;20050;-75
2022/04/29 08:53:36;;;;;;;6.20;4.50;;;;;;;;;;6254642;28;20107;-75
2022/04/29 09:00:04;;;;;;;6.20;4.80;;;;;;;;;;6251185;28;20058;-74
2022/04/29 09:03:06;;;;;;;7.55;6.43;;;;;;;;;;6251340;28;20057;-74
2022/04/29 09:06:08;;;;;;;6.85;5.45;;;;;;;;;;6253414;28;20057;-76
2022/04/29 09:09:10;;;;;;;6.88;5.45;;;;;;;;;;6253799;28;20053;-75
2022/04/29 09:12:16;;;;;;;8.15;6.28;;;;;;;;;;6245950;28;20080;-75
2022/04/29 09:15:19;;;;;;;12.90;6.90;;;;;;;;;;6248402;28;20083;-73
2022/04/29 09:18:35;;;;;;;9.45;6.50;;;;;;;;;;6255630;28;20049;-74
2022/04/29 09:21:37;;;;;;;10.82;7.13;;;;;;;;;;6253863;28;20048;-75
2022/04/29 09:24:38;;;;;;;9.80;7.00;;;;;;;;;;6256200;28;20053;-74
2022/04/29 09:27:54;;;;;;;8.40;6.47;;;;;;;;;;6255315;28;20069;-74
2022/04/29 09:30:57;;;;;;;8.55;5.95;;;;;;;;;;6255598;28;20332;-75
2022/04/29 09:33:59;;;;;;;7.85;5.22;;;;;;;;;;6256462;28;20232;-73
2022/04/29 09:37:13;;;;;;;5.85;4.38;;;;;;;;;;6250106;28;20053;-74
2022/04/29 09:40:14;;;;;;;5.88;4.75;;;;;;;;;;6243696;28;20057;-75
2022/04/29 09:43:16;;;;;;;12.18;6.10;;;;;;;;;;6252908;28;20091;-75
2022/04/29 09:46:21;;;;;;;9.05;6.57;;;;;;;;;;6252449;28;20057;-75
2022/04/29 09:49:27;;;;;;;9.18;6.82;;;;;;;;;;6254319;28;20065;-75
2022/04/29 09:52:30;;;;;;;8.43;6.30;;;;;;;;;;6254989;28;20064;-74
2022/04/29 09:55:32;;;;;;;8.38;5.90;;;;;;;;;;6253970;28;20104;-74
2022/04/29 09:58:33;;;;;;;9.90;6.63;;;;;;;;;;6255080;28;20081;-73
2022/04/29 10:01:37;;;;;;;8.90;6.72;;;;;;;;;;6253797;28;20049;-74
2022/04/29 10:04:40;;;;;;;8.00;6.57;;;;;;;;;;6253457;28;20053;-76
2022/04/29 10:07:42;;;;;;;15.70;11.30;;;;;;;;;;6256887;28;20053;-77
2022/04/29 10:10:44;;;;;;;8.65;6.70;;;;;;;;;;6254120;28;20068;-78
2022/04/29 10:13:46;;;;;;;7.03;6.35;;;;;;;;;;6253951;28;20106;-76
2022/04/29 10:21:15;;;;;;;9.82;7.05;;;;;;;;;;6251625;28;20061;-73
2022/04/29 10:23:38;;;;;;;9.02;6.50;;;;;;;;;;6251508;28;20073;-69
2022/04/29 10:26:40;;;;;;;7.80;6.50;;;;;;;;;;6251606;28;20054;-69
2022/04/29 10:29:42;;;;;;;14.27;6.45;;;;;;;;;;6253900;28;20095;-69
2022/04/29 10:33:09;;;;;;;6.70;5.90;;;;;;;;;;6252176;28;20057;-71
2022/04/29 10:36:14;;;;;;;8.57;6.32;;;;;;;;;;6253576;28;20064;-70
2022/04/29 10:39:18;;;;;;;6.38;5.78;;;;;;;;;;6253538;28;20053;-67
2022/04/29 10:42:20;;;;;;;47.30;37.08;;;;;;;;;;6239297;28;20333;-68
2022/04/29 10:45:21;;;;;;;103.85;72.97;;;;;;;;;;6249248;28;20336;-68
2022/04/29 10:48:36;;;;;;;38.00;33.47;;;;;;;;;;6248381;28;20501;-68
2022/04/29 10:51:48;;;;;;;8.43;7.53;;;;;;;;;;6251395;28;20042;-68
2022/04/29 10:54:56;;;;;;;5.97;5.28;;;;;;;;;;6250756;28;20065;-74
2022/04/29 10:58:02;;;;;;;6.20;5.60;;;;;;;;;;6247613;28;20160;-73
2022/04/29 11:01:23;;;;;;;6.25;4.90;;;;;;;;;;6250026;28;20111;-72
2022/04/29 11:04:45;;;;;;;5.47;4.63;;;;;;;;;;6249305;28;20280;-73
2022/04/29 11:07:48;;;;;;;6.63;5.20;;;;;;;;;;6243474;28;20038;-73
2022/04/29 11:10:54;;;;;;;8.75;4.80;;;;;;;;;;6247921;28;20314;-73
2022/04/29 11:14:00;;;;;;;7.45;5.07;;;;;;;;;;6250622;28;21024;-74
2022/04/29 11:17:10;;;;;;;5.85;5.22;;;;;;;;;;6246865;28;20312;-73
2022/04/29 11:20:19;;;;;;;6.25;4.90;;;;;;;;;;6250947;28;20136;-73
2022/04/29 11:26:49;;;;;;;6.25;4.63;;;;;;;;;;6247042;28;20077;-74
2022/04/29 11:29:51;;;;;;;6.25;4.25;;;;;;;;;;6253973;28;20121;-74
2022/04/29 11:32:52;;;;;;;8.90;4.72;;;;;;;;;;6250952;28;20050;-74
2022/04/29 11:36:03;;;;;;;6.85;5.00;;;;;;;;;;6251465;28;20275;-74
2022/04/29 11:39:09;;;;;;;5.85;5.07;;;;;;;;;;6248224;28;20140;-73
2022/04/29 11:42:18;;;;;;;5.13;4.55;;;;;;;;;;6242614;28;20062;-72
2022/04/29 11:45:21;;;;;;;5.43;4.47;;;;;;;;;;6246914;28;20045;-74
2022/04/29 11:48:22;;;;;;;10.30;5.05;;;;;;;;;;6249894;28;20107;-73
2022/04/29 11:51:26;;;;;;;6.05;5.10;;;;;;;;;;6245892;28;20802;-72
2022/04/29 11:54:28;;;;;;;7.10;4.55;;;;;;;;;;6251157;28;20221;-74
2022/04/29 11:57:31;;;;;;;7.00;5.53;;;;;;;;;;6246307;28;20065;-74
2022/04/29 12:00:34;;;;;;;7.20;5.30;;;;;;;;;;6246505;28;20050;-74
2022/04/29 12:03:36;;;;;;;5.80;4.40;;;;;;;;;;6243262;28;20053;-74
2022/04/29 12:06:55;;;;;;;6.13;5.55;;;;;;;;;;6249716;28;20053;-74
2022/04/29 12:09:59;;;;;;;6.03;5.50;;;;;;;;;;6251293;28;20107;-73
2022/04/29 12:13:02;;;;;;;5.20;4.75;;;;;;;;;;6247382;28;20057;-72
2022/04/29 12:16:05;;;;;;;6.13;4.72;;;;;;;;;;6246568;28;20061;-73
2022/04/29 12:19:15;;;;;;;10.05;4.90;;;;;;;;;;6250001;28;20275;-73
2022/04/29 12:22:29;;;;;;;14.70;4.50;;;;;;;;;;6248007;28;20179;-72
2022/04/29 12:25:37;;;;;;;5.45;4.95;;;;;;;;;;6248847;28;20068;-73
2022/04/29 12:28:39;;;;;;;5.60;4.57;;;;;;;;;;6247801;28;20057;-74
2022/04/29 12:35:08;;;;;;;5.45;4.95;;;;;;;;;;6249132;28;20240;-74
2022/04/29 12:38:18;;;;;;;8.32;5.28;;;;;;;;;;6251228;28;20383;-76
2022/04/29 12:41:23;;;;;;;5.30;4.80;;;;;;;;;;6251380;28;20160;-73
2022/04/29 12:47:46;;;;;;;4.72;4.25;;;;;;;;;;6248401;28;20332;-71
2022/04/29 12:50:48;;;;;;;4.93;4.30;;;;;;;;;;6251739;28;20046;-72
2022/04/29 12:53:51;;;;;;;8.55;4.80;;;;;;;;;;6247877;28;20058;-70
2022/04/29 12:56:52;;;;;;;5.93;4.70;;;;;;;;;;6248126;28;20053;-74
2022/04/29 13:00:00;;;;;;;5.63;5.00;;;;;;;;;;6253114;28;20057;-75
2022/04/29 13:03:03;;;;;;;5.15;4.65;;;;;;;;;;6248833;28;20057;-70
2022/04/29 13:06:06;;;;;;;4.93;4.18;;;;;;;;;;6256340;28;20091;-70
2022/04/29 13:09:09;;;;;;;7.88;3.75;;;;;;;;;;6250994;28;20057;-70
2022/04/29 13:12:13;;;;;;;5.97;4.10;;;;;;;;;;6252844;28;20065;-70
2022/04/29 13:15:16;;;;;;;4.82;4.30;;;;;;;;;;6252595;28;20099;-70
2022/04/29 13:18:19;;;;;;;5.20;4.43;;;;;;;;;;6248487;28;20293;-70
2022/04/29 13:21:20;;;;;;;7.65;4.75;;;;;;;;;;6251193;28;20112;-72
2022/04/29 13:24:23;;;;;;;7.97;4.90;;;;;;;;;;6252167;28;20052;-71
2022/04/29 13:27:25;;;;;;;4.40;4.00;;;;;;;;;;6254876;28;20049;-70
2022/04/29 13:30:26;;;;;;;14.63;13.13;;;;;;;;;;6250133;28;20132;-74
2022/04/29 13:33:28;;;;;;;8.35;5.75;;;;;;;;;;6251117;28;20053;-73
2022/04/29 13:36:30;;;;;;;5.97;4.10;;;;;;;;;;6254786;28;20053;-76
2022/04/29 13:39:33;;;;;;;6.03;4.32;;;;;;;;;;6254152;28;20252;-76
2022/04/29 13:42:36;;;;;;;5.03;4.40;;;;;;;;;;6254688;28;20061;-75
2022/04/29 13:45:38;;;;;;;5.45;4.40;;;;;;;;;;6253578;28;20045;-75
2022/04/29 13:48:39;;;;;;;7.03;4.00;;;;;;;;;;6251678;28;20104;-76
2022/04/29 13:51:41;;;;;;;4.63;4.07;;;;;;;;;;6254971;28;20052;-75
2022/04/29 13:54:44;;;;;;;6.90;3.83;;;;;;;;;;6250747;28;20049;-76
2022/04/29 13:57:46;;;;;;;4.60;4.20;;;;;;;;;;6253261;28;20088;-76
2022/04/29 14:00:49;;;;;;;6.95;4.40;;;;;;;;;;6252709;28;20096;-75
2022/04/29 14:03:51;;;;;;;16.08;4.85;;;;;;;;;;6246973;28;20108;-75
2022/04/29 14:06:52;;;;;;;7.80;4.38;;;;;;;;;;6251490;28;20061;-75
2022/04/29 14:09:55;;;;;;;7.90;4.30;;;;;;;;;;6247671;28;20073;-75
2022/04/29 14:12:58;;;;;;;6.68;3.80;;;;;;;;;;6248430;28;20069;-76
2022/04/29 14:16:00;;;;;;;5.93;4.93;;;;;;;;;;6252553;28;20084;-76
2022/04/29 14:19:01;;;;;;;6.57;4.75;;;;;;;;;;6254866;28;20045;-76
2022/04/29 14:22:04;;;;;;;7.32;5.57;;;;;;;;;;6251353;28;20130;-76
2022/04/29 14:25:08;;;;;;;6.43;4.97;;;;;;;;;;6247766;28;20045;-75
2022/04/29 14:28:10;;;;;;;7.70;4.75;;;;;;;;;;6250340;28;20112;-76
2022/04/29 14:31:12;;;;;;;5.85;5.25;;;;;;;;;;6248367;28;20054;-75
2022/04/29 14:34:14;;;;;;;54.58;46.85;;;;;;;;;;6249448;28;20053;-71
2022/04/29 14:37:16;;;;;;;12.80;9.18;;;;;;;;;;6252735;28;20065;-71
2022/04/29 14:40:19;;;;;;;10.88;8.45;;;;;;;;;;6246284;28;20064;-72
2022/04/29 14:43:21;;;;;;;6.40;5.28;;;;;;;;;;6250012;28;20064;-72
2022/04/29 14:46:22;;;;;;;5.82;5.03;;;;;;;;;;6250519;28;20077;-74
2022/04/29 14:49:26;;;;;;;8.73;5.25;;;;;;;;;;6250246;28;20364;-74
2022/04/29 14:52:28;;;;;;;7.05;5.18;;;;;;;;;;6250332;28;20071;-74
2022/04/29 14:55:32;;;;;;;6.93;5.60;;;;;;;;;;6245248;28;20299;-76
2022/04/29 14:58:34;;;;;;;8.82;5.32;;;;;;;;;;6248322;28;20237;-75
2022/04/29 15:01:35;;;;;;;6.45;4.80;;;;;;;;;;6249488;28;20113;-76
2022/04/29 15:04:38;;;;;;;6.00;5.15;;;;;;;;;;6247871;28;20085;-75
2022/04/29 15:07:40;;;;;;;7.57;5.30;;;;;;;;;;6247494;28;20045;-75
2022/04/29 15:17:23;;;;;;;6.30;5.50;;;;;;;;;;6244301;28;20045;-76
2022/04/29 15:20:25;;;;;;;9.90;4.85;;;;;;;;;;6249413;28;20053;-76
2022/04/29 15:23:26;;;;;;;6.97;5.60;;;;;;;;;;6242726;28;20080;-75
2022/04/29 15:26:29;;;;;;;6.53;5.37;;;;;;;;;;6249574;28;20628;-76
2022/04/29 15:29:31;;;;;;;12.18;5.57;;;;;;;;;;6246161;28;20107;-76
2022/04/29 15:32:33;;;;;;;6.20;5.13;;;;;;;;;;6244531;28;20340;-75
2022/04/29 15:35:34;;;;;;;12.00;5.47;;;;;;;;;;6248824;28;20460;-75
2022/04/29 15:38:36;;;;;;;9.07;5.10;;;;;;;;;;6246969;28;20499;-75
2022/04/29 15:41:39;;;;;;;5.80;5.20;;;;;;;;;;6249126;28;20061;-75
2022/04/29 15:44:41;;;;;;;14.50;12.32;;;;;;;;;;6251039;28;20053;-76
2022/04/29 15:47:42;;;;;;;10.53;6.20;;;;;;;;;;6249756;28;20045;-74
2022/04/29 15:50:45;;;;;;;28.25;22.70;;;;;;;;;;6250675;28;20068;-74
2022/04/29 15:53:46;;;;;;;8.68;6.80;;;;;;;;;;6248263;28;20281;-71
2022/04/29 15:56:49;;;;;;;8.32;5.57;;;;;;;;;;6244062;28;20121;-71
2022/04/29 15:59:51;;;;;;;10.98;6.32;;;;;;;;;;6245502;28;20053;-70
2022/04/29 16:02:53;;;;;;;6.55;4.80;;;;;;;;;;6245766;28;20057;-70
2022/04/29 16:05:54;;;;;;;8.82;5.68;;;;;;;;;;6245943;28;20058;-70
2022/04/29 16:08:56;;;;;;;6.30;5.38;;;;;;;;;;6244583;28;20068;-70
2022/04/29 16:11:59;;;;;;;11.70;6.10;;;;;;;;;;6248639;28;20058;-70
2022/04/29 16:15:00;;;;;;;;;;;;;;;;;;6248455;28;20290;-70
2022/04/29 16:21:34;;;;;;;5.63;5.00;;;;;;;;;;6149904;28;20274;-70
2022/04/29 16:28:02;;;;;;;5.40;4.43;;;;;;;;;;6137127;28;20145;-70
2022/04/29 16:31:04;;;;;;;;;;;;;;;;;;6146204;28;20199;-70
2022/04/29 16:34:05;;;;;;;8.02;4.70;;;;;;;;;;6150257;28;19949;-71
2022/04/29 16:37:10;;;;;;;6.35;4.53;;;;;;;;;;6151041;29;20062;-70
2022/04/29 16:40:12;;;;;;;7.53;4.55;;;;;;;;;;6146876;29;21082;-71
2022/04/29 16:43:15;;;;;;;6.18;5.03;;;;;;;;;;6142743;28;20052;-71
2022/04/29 16:46:19;;;;;;;6.47;4.55;;;;;;;;;;6150520;28;20119;-70
2022/04/29 16:49:21;;;;;;;6.57;4.78;;;;;;;;;;6155207;28;20174;-70
2022/04/29 16:52:23;;;;;;;5.78;4.10;;;;;;;;;;6150135;28;20063;-70
2022/04/29 16:55:25;;;;;;;10.25;4.70;;;;;;;;;;6198244;28;20053;-70
2022/04/29 17:01:55;;;;;;;8.52;4.57;;;;;;;;;;6202193;28;20124;-71
2022/04/29 17:04:57;;;;;;;11.45;5.13;;;;;;;;;;6199393;28;20058;-71
2022/04/29 17:07:58;;;;;;;7.40;4.47;;;;;;;;;;6205986;28;20066;-70
2022/04/29 17:11:00;;;;;;;7.57;5.22;;;;;;;;;;6205288;28;20276;-70
2022/04/29 17:14:03;;;;;;;8.48;5.35;;;;;;;;;;6202494;28;20058;-70
2022/04/29 17:17:05;;;;;;;7.10;5.80;;;;;;;;;;6202446;28;20146;-70
2022/04/29 17:20:08;;;;;;;6.05;5.22;;;;;;;;;;6197596;28;20055;-70
2022/04/29 17:23:10;;;;;;;9.13;6.28;;;;;;;;;;6201466;28;20076;-70
2022/04/29 17:26:11;;;;;;;7.53;5.60;;;;;;;;;;6200733;28;20124;-70
2022/04/29 17:29:16;;;;;;;8.70;5.25;;;;;;;;;;6200046;28;20073;-70
2022/04/29 17:32:19;;;;;;;7.78;5.93;;;;;;;;;;6203347;28;20054;-71
2022/04/29 17:35:21;;;;;;;9.60;5.90;;;;;;;;;;6198533;28;20061;-72
2022/04/29 17:38:24;;;;;;;7.75;5.88;;;;;;;;;;6246706;28;20049;-72
2022/04/29 17:45:00;;;;;;;8.13;5.50;;;;;;;;;;6200583;28;20141;-72
2022/04/29 17:48:01;;;;;;;6.25;4.60;;;;;;;;;;6204005;28;20089;-73
2022/04/29 17:51:03;;;;;;;9.80;5.20;;;;;;;;;;6198484;28;20050;-73
2022/04/29 17:54:05;;;;;;;8.38;4.20;;;;;;;;;;6203498;28;20050;-72
2022/04/29 17:57:07;;;;;;;5.95;4.65;;;;;;;;;;6197493;28;20109;-73
2022/04/29 18:00:11;;;;;;;8.85;4.80;;;;;;;;;;6202629;28;20104;-69
2022/04/29 18:03:13;;;;;;;8.25;4.72;;;;;;;;;;6198953;28;20066;-70
2022/04/29 18:06:15;;;;;;;6.95;4.40;;;;;;;;;;6200805;28;20294;-78
2022/04/29 18:09:16;;;;;;;7.88;3.90;;;;;;;;;;6198281;28;20058;-74
2022/04/29 18:12:18;;;;;;;9.55;4.43;;;;;;;;;;6202525;28;20309;-74
2022/04/29 18:15:21;;;;;;;8.50;4.22;;;;;;;;;;6197873;28;20050;-74
2022/04/29 18:18:23;;;;;;;6.20;4.03;;;;;;;;;;6215079;28;20057;-77
2022/04/29 18:21:25;;;;;;;10.70;4.68;;;;;;;;;;6250781;28;20057;-79
2022/04/29 18:24:26;;;;;;;5.95;3.78;;;;;;;;;;6250785;28;20112;-81
2022/04/29 18:27:28;;;;;;;6.40;3.92;;;;;;;;;;6252242;28;20045;-77
2022/04/29 18:30:32;;;;;;;5.03;3.70;;;;;;;;;;6250718;28;20053;-77
2022/04/29 18:33:34;;;;;;;;;;;;;;;;;;6243602;28;20049;-80
2022/04/29 18:36:35;;;;;;;7.40;4.32;;;;;;;;;;6250226;28;19924;-75
2022/04/29 18:39:37;;;;;;;5.22;3.40;;;;;;;;;;6255776;28;20053;-74
2022/04/29 18:42:40;;;;;;;5.80;3.28;;;;;;;;;;6249727;28;20054;-76
2022/04/29 18:45:43;;;;;;;;;;;;;;;;;;6253283;28;20220;-72
2022/04/29 18:48:45;;;;;;;5.97;3.60;;;;;;;;;;6251358;28;19917;-71
2022/04/29 18:51:46;;;;;;;6.63;3.92;;;;;;;;;;6252768;28;20053;-69
2022/04/29 18:54:48;;;;;;;4.97;2.97;;;;;;;;;;6253542;28;20049;-72
2022/04/29 18:57:50;;;;;;;4.97;2.83;;;;;;;;;;6248246;28;20064;-70
2022/04/29 19:00:53;;;;;;;5.13;3.35;;;;;;;;;;6246428;28;20053;-76
2022/04/29 19:03:54;;;;;;;10.82;3.45;;;;;;;;;;6252038;28;20094;-76